Pittsburgh, Pennsylvania
Traffic Map
Current Weather Conditions
Pittsburgh, Pennsylvania
Overcast
Overcast
63°
Feels Like: 63°
Wind Chill: 63° Ceiling: 2600
Heat Index: 63° Visibility: 10mi
Dew Point: 55° Wind: 6mph
Humidity: 75% Direction: 50° (NE)
Pressure: 30.16in Gusts: 0mph
Raw Report DataKAGC 231653Z 05005KT 10SM OVC026 17/13 A3016 RMK AO2 SLP213 T01720128
Traffic Incident Summary
Active as of:
Severity:
Category:
InformationThere was an issue retrieving the traffic information for this location. Please try a different location or try again shortly.
Advertisements